Time;durP1;ratioP1;P1;durP2;ratioP2;P2;SDS_P1;SDS_P2;PMS_P1;PMS_P2;Temp;Humidity;BMP_temperature;BMP_pressure;BME280_temperature;BME280_humidity;BME280_pressure;Samples;Min_cycle;Max_cycle;Signal;HPM_P1;HPM_P2
2021/03/06 00:00:16;;;;;;;10.57;6.90;;;0.80;99.90;;;;;;5052419;28;20268;-73
2021/03/06 00:02:42;;;;;;;10.93;6.73;;;0.80;99.90;;;;;;5052726;28;20715;-73
2021/03/06 00:05:10;;;;;;;11.17;7.43;;;0.90;99.90;;;;;;5052305;28;20220;-73
2021/03/06 00:07:38;;;;;;;10.27;6.90;;;1.00;99.90;;;;;;5052774;28;20242;-73
2021/03/06 00:10:06;;;;;;;11.03;7.17;;;0.80;99.90;;;;;;5052364;28;20305;-73
2021/03/06 00:12:33;;;;;;;9.63;7.00;;;0.80;99.90;;;;;;5051857;28;20252;-73
2021/03/06 00:15:00;;;;;;;9.80;6.90;;;0.80;99.90;;;;;;5052636;28;20323;-73
2021/03/06 00:17:26;;;;;;;10.80;7.20;;;0.80;99.90;;;;;;5052374;28;20256;-73
2021/03/06 00:19:53;;;;;;;10.17;7.20;;;0.80;99.90;;;;;;5052294;28;20323;-73
2021/03/06 00:22:19;;;;;;;9.93;6.63;;;0.70;99.90;;;;;;5052372;28;20694;-73
2021/03/06 00:24:45;;;;;;;9.93;6.93;;;0.70;99.90;;;;;;5052639;28;20306;-73
2021/03/06 00:27:12;;;;;;;10.80;7.17;;;0.70;99.90;;;;;;5051920;28;20261;-73
2021/03/06 00:29:38;;;;;;;11.90;7.67;;;0.70;99.90;;;;;;5052491;28;20671;-73
2021/03/06 00:32:06;;;;;;;10.97;7.30;;;0.70;99.90;;;;;;5052432;28;20239;-73
2021/03/06 00:34:33;;;;;;;10.63;7.37;;;0.70;99.90;;;;;;5052157;28;20259;-73
2021/03/06 00:37:00;;;;;;;9.57;7.00;;;0.60;99.90;;;;;;5052248;28;20244;-73
2021/03/06 00:39:27;;;;;;;11.37;7.17;;;0.70;99.90;;;;;;5052056;28;20267;-73
2021/03/06 00:41:53;;;;;;;13.00;7.27;;;0.60;99.90;;;;;;5034186;28;20295;-73
2021/03/06 00:44:20;;;;;;;10.87;7.17;;;0.70;99.90;;;;;;5052013;28;20666;-73
2021/03/06 00:46:46;;;;;;;10.70;6.77;;;0.70;99.90;;;;;;5051764;28;20726;-73
2021/03/06 00:49:15;;;;;;;10.00;7.10;;;0.60;99.90;;;;;;5052099;28;20196;-73
2021/03/06 00:51:42;;;;;;;11.37;7.37;;;0.60;99.90;;;;;;5051895;28;20246;-73
2021/03/06 00:54:08;;;;;;;10.70;7.00;;;0.60;99.90;;;;;;5051648;28;20244;-73
2021/03/06 00:56:35;;;;;;;12.33;7.30;;;0.50;99.90;;;;;;5034187;28;20236;-73
2021/03/06 00:59:01;;;;;;;10.20;7.13;;;0.50;99.90;;;;;;5051496;28;20661;-73
2021/03/06 01:01:28;;;;;;;10.60;7.67;;;0.40;99.90;;;;;;5051883;28;20654;-73
2021/03/06 01:03:54;;;;;;;10.47;7.30;;;0.30;99.90;;;;;;5052253;28;20239;-72
2021/03/06 01:06:22;;;;;;;11.57;6.83;;;0.30;99.90;;;;;;5051422;28;20238;-73
2021/03/06 01:08:48;;;;;;;10.73;7.37;;;0.30;99.90;;;;;;5051442;28;20288;-73
2021/03/06 01:11:15;;;;;;;12.37;7.43;;;0.30;99.90;;;;;;5051153;28;20308;-73
2021/03/06 01:13:41;;;;;;;11.50;7.10;;;0.30;99.90;;;;;;5051785;28;20237;-73
2021/03/06 01:16:08;;;;;;;11.00;7.17;;;0.30;99.90;;;;;;5051899;28;20239;-73
2021/03/06 01:18:34;;;;;;;10.17;6.77;;;0.30;99.90;;;;;;5051431;28;20342;-73
2021/03/06 01:21:01;;;;;;;11.73;7.77;;;0.30;99.90;;;;;;5051764;28;20238;-73
2021/03/06 01:23:28;;;;;;;11.40;6.93;;;0.30;99.90;;;;;;5051480;28;20243;-72
2021/03/06 01:25:55;;;;;;;11.53;7.20;;;0.30;99.90;;;;;;5051568;28;20243;-73
2021/03/06 01:28:21;;;;;;;10.00;6.83;;;0.30;99.90;;;;;;5051215;28;20247;-72
2021/03/06 01:30:47;;;;;;;11.30;7.27;;;0.30;99.90;;;;;;5051136;28;20230;-73
2021/03/06 01:33:14;;;;;;;10.27;6.63;;;0.30;99.90;;;;;;5051101;28;20226;-73
2021/03/06 01:35:41;;;;;;;11.10;7.40;;;0.30;99.90;;;;;;5051441;28;20232;-73
2021/03/06 01:38:07;;;;;;;10.30;6.70;;;0.30;99.90;;;;;;5051361;28;20246;-73
2021/03/06 01:40:37;;;;;;;10.67;7.07;;;0.20;99.90;;;;;;5051454;28;20312;-73
2021/03/06 01:43:05;;;;;;;10.40;7.67;;;0.10;99.90;;;;;;5051518;28;20206;-73
2021/03/06 01:45:32;;;;;;;8.20;6.43;;;0.10;99.90;;;;;;5051337;28;20228;-73
2021/03/06 01:47:58;;;;;;;10.60;7.50;;;0.10;99.90;;;;;;5051581;28;20228;-73
2021/03/06 01:50:30;;;;;;;10.40;7.00;;;0.00;99.90;;;;;;5051440;28;20232;-73
2021/03/06 01:52:57;;;;;;;11.43;7.27;;;0.10;99.90;;;;;;5051346;28;20249;-73
2021/03/06 01:55:26;;;;;;;13.27;7.83;;;0.10;99.90;;;;;;5050898;28;20215;-73
2021/03/06 01:57:54;;;;;;;10.50;7.33;;;0.10;99.90;;;;;;5051443;28;20233;-72
2021/03/06 02:00:22;;;;;;;10.73;6.87;;;0.10;99.90;;;;;;5055045;28;20313;-75
2021/03/06 02:02:49;;;;;;;10.27;6.67;;;0.10;99.90;;;;;;5054925;28;20242;-74
2021/03/06 02:05:16;;;;;;;11.40;7.30;;;0.00;99.90;;;;;;5054989;28;20236;-74
2021/03/06 02:07:42;;;;;;;11.83;7.37;;;0.00;99.90;;;;;;5054804;28;20235;-72
2021/03/06 02:10:11;;;;;;;10.87;7.47;;;0.00;99.90;;;;;;5054632;28;20227;-75
2021/03/06 02:12:48;;;;;;;11.23;7.57;;;0.00;99.90;;;;;;5054893;28;20238;-74
2021/03/06 02:15:24;;;;;;;12.80;7.13;;;0.00;99.90;;;;;;5054599;28;20236;-72
2021/03/06 02:17:54;;;;;;;11.50;7.57;;;-0.10;99.90;;;;;;5054152;28;20251;-72
2021/03/06 02:20:42;;;;;;;11.30;7.63;;;0.00;99.90;;;;;;5054768;28;20266;-73
2021/03/06 02:23:43;;;;;;;10.23;7.50;;;0.00;99.90;;;;;;5054386;28;20327;-72
2021/03/06 02:26:33;;;;;;;11.53;7.30;;;-0.10;99.90;;;;;;5054748;28;20285;-74
2021/03/06 02:29:14;;;;;;;12.93;7.93;;;-0.10;99.90;;;;;;5038285;28;20282;-75
2021/03/06 02:31:42;;;;;;;13.43;7.60;;;-0.10;99.90;;;;;;5054286;28;20257;-74
2021/03/06 02:34:12;;;;;;;11.03;7.70;;;0.00;99.90;;;;;;5054492;28;20235;-74
2021/03/06 02:36:47;;;;;;;12.43;8.03;;;-0.10;99.90;;;;;;5054467;28;20235;-74
2021/03/06 02:39:17;;;;;;;12.37;7.50;;;-0.10;99.90;;;;;;5054480;28;20781;-74
2021/03/06 02:41:46;;;;;;;12.77;8.67;;;-0.10;99.90;;;;;;5046377;28;20222;-75
2021/03/06 02:44:14;;;;;;;12.83;7.90;;;0.00;99.90;;;;;;5041546;28;20274;-75
2021/03/06 02:46:43;;;;;;;12.03;8.43;;;-0.10;99.90;;;;;;5034365;28;20232;-74
2021/03/06 02:49:09;;;;;;;11.43;8.63;;;0.00;99.90;;;;;;5034225;28;20234;-75
2021/03/06 02:51:37;;;;;;;11.03;7.83;;;-0.10;99.90;;;;;;5033815;28;20200;-74
2021/03/06 02:54:04;;;;;;;11.30;8.87;;;0.00;99.90;;;;;;5048358;28;20648;-74
2021/03/06 02:56:31;;;;;;;11.40;8.27;;;-0.10;99.90;;;;;;5053743;28;20248;-74
2021/03/06 02:59:07;;;;;;;11.30;8.27;;;-0.10;99.90;;;;;;5054058;28;20285;-74
2021/03/06 03:01:43;;;;;;;12.03;8.23;;;-0.10;99.90;;;;;;5053838;28;20238;-74
2021/03/06 03:04:19;;;;;;;11.33;8.53;;;-0.20;99.90;;;;;;5053839;28;20235;-75
2021/03/06 03:06:48;;;;;;;12.40;8.77;;;-0.10;99.90;;;;;;5053644;28;20692;-74
2021/03/06 03:09:20;;;;;;;12.83;8.60;;;-0.20;99.90;;;;;;5053702;28;20230;-74
2021/03/06 03:11:51;;;;;;;11.27;8.63;;;-0.20;99.90;;;;;;5053065;28;20265;-74
2021/03/06 03:14:27;;;;;;;13.43;9.17;;;-0.20;99.90;;;;;;5053236;28;20909;-74
2021/03/06 03:16:59;;;;;;;13.90;8.87;;;-0.20;99.90;;;;;;5053168;28;20307;-74
2021/03/06 03:19:31;;;;;;;12.73;8.93;;;-0.20;99.90;;;;;;5053209;28;20318;-74
2021/03/06 03:22:00;;;;;;;13.83;9.73;;;-0.20;99.90;;;;;;5053372;28;20235;-74
2021/03/06 03:24:32;;;;;;;13.60;9.23;;;-0.20;99.90;;;;;;5053365;28;20643;-74
2021/03/06 03:26:59;;;;;;;12.07;8.73;;;-0.20;99.90;;;;;;5052967;28;20278;-74
2021/03/06 03:29:27;;;;;;;12.07;9.23;;;-0.20;99.90;;;;;;5053191;28;20232;-74
2021/03/06 03:31:55;;;;;;;12.77;9.10;;;-0.30;99.90;;;;;;5053108;28;20250;-74
2021/03/06 03:34:22;;;;;;;12.93;9.40;;;-0.30;99.90;;;;;;5053368;28;20231;-74
2021/03/06 03:36:53;;;;;;;13.13;9.43;;;-0.30;99.90;;;;;;5052706;28;20240;-74
2021/03/06 03:39:20;;;;;;;13.30;8.83;;;-0.30;99.90;;;;;;5053038;28;20293;-74
2021/03/06 03:41:46;;;;;;;11.67;8.97;;;-0.40;99.90;;;;;;5053256;28;20239;-74
2021/03/06 03:44:16;;;;;;;13.43;8.63;;;-0.30;99.90;;;;;;5053002;28;20664;-74
2021/03/06 03:46:43;;;;;;;13.03;9.80;;;-0.40;99.90;;;;;;5053220;28;20218;-74
2021/03/06 03:49:15;;;;;;;14.23;9.73;;;-0.40;99.90;;;;;;5035242;28;20736;-74
2021/03/06 03:51:42;;;;;;;14.03;10.00;;;-0.40;99.90;;;;;;5052830;28;20236;-74
2021/03/06 03:54:10;;;;;;;14.40;9.77;;;-0.40;99.90;;;;;;5052785;28;20235;-74
2021/03/06 03:56:37;;;;;;;14.20;9.60;;;-0.30;99.90;;;;;;5053061;28;20287;-74
2021/03/06 03:59:03;;;;;;;14.57;9.90;;;-0.40;99.90;;;;;;5052838;28;20204;-74
2021/03/06 04:01:38;;;;;;;12.23;9.40;;;-0.40;99.90;;;;;;5052782;28;20664;-75
2021/03/06 04:04:07;;;;;;;15.20;10.13;;;-0.60;99.90;;;;;;5052400;28;20200;-75
2021/03/06 04:06:34;;;;;;;12.67;9.60;;;-0.50;99.90;;;;;;5052438;28;20629;-74
2021/03/06 04:09:01;;;;;;;13.43;9.90;;;-0.60;99.90;;;;;;5052552;28;20195;-74
2021/03/06 04:11:28;;;;;;;15.00;9.80;;;-0.70;99.90;;;;;;5052412;28;20236;-74
2021/03/06 04:13:54;;;;;;;14.73;9.83;;;-0.70;99.90;;;;;;5052522;28;20239;-74
2021/03/06 04:16:24;;;;;;;16.03;9.90;;;-0.70;99.90;;;;;;5052336;28;20330;-74
2021/03/06 04:18:50;;;;;;;13.73;9.60;;;-0.70;99.90;;;;;;5051870;28;20789;-74
2021/03/06 04:21:16;;;;;;;15.73;10.40;;;-0.70;99.90;;;;;;5052000;28;20231;-74
2021/03/06 04:23:43;;;;;;;15.70;10.53;;;-0.70;99.90;;;;;;5052055;28;20238;-74
2021/03/06 04:26:09;;;;;;;15.10;10.53;;;-0.70;99.90;;;;;;5051988;28;20299;-75
2021/03/06 04:28:37;;;;;;;15.83;10.53;;;-0.80;99.90;;;;;;5052132;28;20282;-74
2021/03/06 04:31:03;;;;;;;13.73;10.17;;;-0.80;99.90;;;;;;5052267;28;20675;-74
2021/03/06 04:33:30;;;;;;;15.97;10.70;;;-0.90;99.90;;;;;;5052068;28;20204;-74
2021/03/06 04:35:56;;;;;;;14.27;9.90;;;-0.90;99.90;;;;;;5052039;28;20277;-75
2021/03/06 04:38:23;;;;;;;14.00;10.43;;;-0.90;99.90;;;;;;5052046;28;20235;-74
2021/03/06 04:40:50;;;;;;;13.70;10.07;;;-1.00;99.90;;;;;;5052044;28;20315;-75
2021/03/06 04:43:16;;;;;;;15.77;10.83;;;-1.10;99.90;;;;;;5051931;28;20242;-74
2021/03/06 04:45:46;;;;;;;13.67;10.47;;;-1.10;99.90;;;;;;5037698;28;20731;-74
2021/03/06 04:48:13;;;;;;;15.77;10.03;;;-1.20;99.90;;;;;;5031583;28;20685;-74
2021/03/06 04:50:39;;;;;;;14.27;10.80;;;-1.20;99.90;;;;;;5032119;28;20702;-74
2021/03/06 04:53:06;;;;;;;16.00;11.30;;;-1.10;99.90;;;;;;5032053;28;20661;-74
2021/03/06 04:55:32;;;;;;;15.53;11.13;;;-1.00;99.90;;;;;;5031331;28;20730;-74
2021/03/06 04:57:59;;;;;;;16.23;11.90;;;-0.90;99.90;;;;;;5031744;28;20228;-75
2021/03/06 05:00:26;;;;;;;14.87;11.40;;;-1.00;99.90;;;;;;5031558;28;20271;-74
2021/03/06 05:02:53;;;;;;;16.97;12.07;;;-0.80;99.90;;;;;;5031892;28;20284;-74
2021/03/06 05:05:19;;;;;;;17.80;12.20;;;-0.90;99.90;;;;;;5032347;28;20241;-74
2021/03/06 05:07:46;;;;;;;18.60;12.47;;;-0.90;99.90;;;;;;5031826;28;20204;-74
2021/03/06 05:10:13;;;;;;;16.77;11.77;;;-0.90;99.90;;;;;;5031778;28;20236;-74
2021/03/06 05:12:39;;;;;;;19.10;12.47;;;-0.80;99.90;;;;;;5031695;28;20286;-74
2021/03/06 05:15:07;;;;;;;19.93;12.77;;;-0.70;99.90;;;;;;5031870;28;20204;-74
2021/03/06 05:17:33;;;;;;;17.73;11.77;;;-0.70;99.90;;;;;;5030950;28;20259;-74
2021/03/06 05:20:01;;;;;;;18.10;12.20;;;-0.80;99.90;;;;;;5031750;28;20275;-73
2021/03/06 05:22:27;;;;;;;17.80;12.63;;;-0.90;99.90;;;;;;5031588;28;20562;-74
2021/03/06 05:24:53;;;;;;;19.23;12.53;;;-0.90;99.90;;;;;;5031713;28;20232;-74
2021/03/06 05:27:20;;;;;;;16.30;11.67;;;-0.90;99.90;;;;;;5031914;28;20246;-74
2021/03/06 05:29:47;;;;;;;18.77;12.30;;;-1.00;99.90;;;;;;5031584;28;20232;-74
2021/03/06 05:32:13;;;;;;;21.90;12.93;;;-1.00;99.90;;;;;;5031421;28;20201;-74
2021/03/06 05:34:39;;;;;;;17.37;12.10;;;-1.00;99.90;;;;;;5034472;28;20687;-74
2021/03/06 05:37:07;;;;;;;20.27;12.47;;;-1.00;99.90;;;;;;5035652;28;20236;-74
2021/03/06 05:39:33;;;;;;;18.13;12.77;;;-1.00;99.90;;;;;;5035516;28;20256;-74
2021/03/06 05:42:00;;;;;;;18.80;12.57;;;-0.80;99.90;;;;;;5035504;28;20287;-74
2021/03/06 05:44:27;;;;;;;17.97;12.27;;;-0.80;99.90;;;;;;5038832;28;20251;-73
2021/03/06 05:46:56;;;;;;;17.47;12.33;;;-0.80;99.90;;;;;;5054861;28;20292;-74
2021/03/06 05:49:23;;;;;;;18.27;12.13;;;-0.70;99.90;;;;;;5055332;28;20620;-74
2021/03/06 05:51:52;;;;;;;23.63;13.13;;;-0.80;99.90;;;;;;5055486;28;20253;-74
2021/03/06 05:54:21;;;;;;;22.67;12.77;;;-0.90;99.90;;;;;;5055405;28;20291;-74
2021/03/06 05:56:50;;;;;;;20.20;12.83;;;-0.90;99.90;;;;;;5054717;28;20242;-74
2021/03/06 05:59:19;;;;;;;21.30;12.50;;;-0.80;99.90;;;;;;5055152;28;20282;-74
2021/03/06 06:01:47;;;;;;;20.20;12.40;;;-0.70;99.90;;;;;;5054608;28;20969;-74
2021/03/06 06:04:15;;;;;;;19.23;13.17;;;-0.70;99.90;;;;;;5054808;28;20240;-74
2021/03/06 06:06:42;;;;;;;17.77;12.20;;;-0.60;99.90;;;;;;5054774;28;20687;-74
2021/03/06 06:09:09;;;;;;;20.73;13.57;;;-0.70;99.90;;;;;;5055103;28;20926;-74
2021/03/06 06:11:37;;;;;;;19.50;13.17;;;-0.60;99.90;;;;;;5054935;28;20204;-74
2021/03/06 06:14:05;;;;;;;19.13;13.13;;;-0.60;99.90;;;;;;5054816;28;20231;-74
2021/03/06 06:16:32;;;;;;;19.43;12.67;;;-0.70;99.90;;;;;;5054608;28;20297;-74
2021/03/06 06:19:00;;;;;;;19.40;12.60;;;-0.70;99.90;;;;;;5054449;28;20267;-74
2021/03/06 06:21:42;;;;;;;21.23;13.63;;;-0.70;99.90;;;;;;5054744;28;20283;-74
2021/03/06 06:24:09;;;;;;;23.10;13.67;;;-0.80;99.90;;;;;;5054577;28;20211;-74
2021/03/06 06:26:38;;;;;;;21.53;13.37;;;-0.80;99.90;;;;;;5054864;28;20231;-74
2021/03/06 06:29:05;;;;;;;19.90;12.90;;;-0.90;99.90;;;;;;5054214;28;20309;-74
2021/03/06 06:31:32;;;;;;;20.93;13.20;;;-1.00;99.90;;;;;;5054339;28;20232;-74
2021/03/06 06:33:58;;;;;;;22.73;12.43;;;-0.90;99.90;;;;;;5054732;28;20892;-74
2021/03/06 06:36:38;;;;;;;20.47;13.90;;;-0.90;99.90;;;;;;5054272;28;20294;-74
2021/03/06 06:39:06;;;;;;;21.40;13.97;;;-0.90;99.90;;;;;;5053668;28;20204;-74
2021/03/06 06:41:54;;;;;;;22.33;13.87;;;-0.80;99.90;;;;;;5053973;28;20253;-73
2021/03/06 06:44:22;;;;;;;20.70;12.87;;;-0.90;99.90;;;;;;5052715;28;20207;-74
2021/03/06 06:46:49;;;;;;;22.07;14.07;;;-0.90;99.90;;;;;;5054278;28;20227;-74
2021/03/06 06:49:16;;;;;;;22.30;13.87;;;-0.90;99.90;;;;;;5054250;28;20242;-74
2021/03/06 06:51:59;;;;;;;21.13;13.77;;;-0.80;99.90;;;;;;5053924;28;20239;-74
2021/03/06 06:54:26;;;;;;;23.77;14.03;;;-0.70;99.90;;;;;;5053743;28;20247;-74
2021/03/06 06:57:16;;;;;;;22.63;13.20;;;-0.50;99.90;;;;;;5053828;28;20203;-74
2021/03/06 06:59:53;;;;;;;22.73;14.33;;;-0.50;99.90;;;;;;5053248;28;20215;-74
2021/03/06 07:02:20;;;;;;;21.20;13.40;;;-0.30;99.90;;;;;;5053981;28;20909;-74
2021/03/06 07:04:50;;;;;;;21.87;13.83;;;-0.10;99.90;;;;;;5053692;28;20283;-75
2021/03/06 07:07:18;;;;;;;20.53;13.80;;;0.20;99.90;;;;;;5053377;28;20696;-74
2021/03/06 07:09:58;;;;;;;21.33;13.30;;;0.50;99.90;;;;;;5053588;28;20231;-74
2021/03/06 07:12:30;;;;;;;21.43;13.90;;;0.90;99.90;;;;;;5053157;28;20901;-74
2021/03/06 07:14:57;;;;;;;20.90;13.93;;;1.10;99.90;;;;;;5053148;28;20774;-74
2021/03/06 07:17:24;;;;;;;19.80;13.53;;;1.40;99.90;;;;;;5053712;28;20282;-74
2021/03/06 07:19:51;;;;;;;19.47;12.57;;;1.50;99.90;;;;;;5053069;28;20235;-75
2021/03/06 07:22:18;;;;;;;17.37;12.30;;;1.90;99.90;;;;;;5053196;28;20595;-74
2021/03/06 07:24:45;;;;;;;19.43;12.97;;;2.20;99.90;;;;;;5053399;28;20523;-74
2021/03/06 07:27:12;;;;;;;19.43;12.47;;;2.50;99.90;;;;;;5053392;28;20207;-74
2021/03/06 07:29:40;;;;;;;18.73;12.33;;;2.90;99.90;;;;;;5053221;28;20228;-75
2021/03/06 07:32:12;;;;;;;18.80;11.97;;;3.10;99.90;;;;;;5052937;28;20657;-74
2021/03/06 07:34:38;;;;;;;19.10;12.93;;;3.00;99.90;;;;;;5052987;28;20548;-75
2021/03/06 07:37:06;;;;;;;17.70;12.47;;;3.40;99.90;;;;;;5052948;28;20906;-74
2021/03/06 07:39:39;;;;;;;16.13;12.17;;;3.50;99.90;;;;;;5053307;28;20313;-74
2021/03/06 07:42:17;;;;;;;18.17;12.17;;;3.70;99.90;;;;;;5052829;28;20200;-75
2021/03/06 07:44:45;;;;;;;18.60;12.50;;;3.50;99.90;;;;;;5053238;28;20250;-75
2021/03/06 07:47:14;;;;;;;18.37;12.47;;;3.80;99.90;;;;;;5052775;28;20237;-75
2021/03/06 07:49:42;;;;;;;18.80;11.93;;;4.00;99.90;;;;;;5052870;28;20705;-74
2021/03/06 07:52:10;;;;;;;16.00;12.13;;;4.50;99.90;;;;;;5052239;28;20270;-75
2021/03/06 07:54:38;;;;;;;16.80;12.53;;;5.00;99.90;;;;;;5052975;28;20377;-75
2021/03/06 07:57:06;;;;;;;17.50;12.97;;;4.80;99.90;;;;;;5051481;28;20197;-75
2021/03/06 08:00:00;;;;;;;16.00;12.60;;;4.80;99.90;;;;;;5052681;28;20258;-73
2021/03/06 08:02:34;;;;;;;16.03;12.30;;;5.30;99.90;;;;;;5052918;28;20233;-75
2021/03/06 08:05:01;;;;;;;17.10;12.63;;;5.50;99.90;;;;;;5052492;28;20242;-74
2021/03/06 08:07:42;;;;;;;15.20;12.30;;;5.90;99.90;;;;;;5052557;28;20241;-74
2021/03/06 08:10:10;;;;;;;15.87;12.77;;;6.80;99.90;;;;;;5052444;28;20567;-74
2021/03/06 08:12:38;;;;;;;15.40;12.30;;;6.30;99.90;;;;;;5052395;28;20227;-74
2021/03/06 08:15:28;;;;;;;16.23;12.00;;;7.00;99.90;;;;;;5052419;28;20230;-74
2021/03/06 08:17:56;;;;;;;19.37;12.60;;;7.00;99.90;;;;;;5052095;28;20656;-75
2021/03/06 08:20:25;;;;;;;16.30;12.73;;;6.70;99.90;;;;;;5034563;28;20255;-74
2021/03/06 08:23:17;;;;;;;15.43;12.40;;;7.80;99.90;;;;;;5051955;28;20242;-75
2021/03/06 08:25:43;;;;;;;15.33;12.07;;;8.00;99.90;;;;;;5051828;28;20644;-74
2021/03/06 08:28:26;;;;;;;15.17;12.50;;;8.20;99.90;;;;;;5051843;28;20235;-74
2021/03/06 08:30:54;;;;;;;14.63;12.63;;;8.30;99.90;;;;;;5052217;28;20257;-75
2021/03/06 08:33:20;;;;;;;14.50;12.30;;;8.60;99.90;;;;;;5052149;28;20283;-74
2021/03/06 08:35:48;;;;;;;16.67;12.57;;;8.60;99.90;;;;;;5052231;28;20239;-74
2021/03/06 08:38:29;;;;;;;16.07;12.57;;;8.00;99.90;;;;;;5052059;28;20231;-75
2021/03/06 08:40:56;;;;;;;14.87;12.53;;;8.30;99.90;;;;;;5051501;28;20265;-74
2021/03/06 08:43:23;;;;;;;13.50;11.93;;;8.00;99.90;;;;;;5034336;28;20598;-75
2021/03/06 08:45:50;;;;;;;16.53;12.20;;;8.50;99.90;;;;;;5052155;28;20319;-75
2021/03/06 08:48:23;;;;;;;13.90;11.83;;;8.10;99.90;;;;;;5051960;28;20238;-74
2021/03/06 08:50:50;;;;;;;13.90;11.80;;;7.70;99.90;;;;;;5051933;28;20202;-75
2021/03/06 08:53:17;;;;;;;14.43;11.63;;;8.70;99.90;;;;;;5051880;28;20698;-74
2021/03/06 08:55:45;;;;;;;12.27;10.93;;;8.10;99.90;;;;;;5051701;28;20212;-74
2021/03/06 08:58:13;;;;;;;13.50;11.77;;;7.60;99.90;;;;;;5051833;28;20231;-74
2021/03/06 09:00:41;;;;;;;12.37;11.03;;;7.70;99.90;;;;;;5051966;28;20289;-74
2021/03/06 09:03:14;;;;;;;12.73;11.37;;;7.60;99.90;;;;;;5052043;28;20285;-74
2021/03/06 09:05:43;;;;;;;12.93;11.23;;;8.10;99.90;;;;;;5051820;28;20235;-74
2021/03/06 09:08:09;;;;;;;13.40;11.33;;;7.90;99.90;;;;;;5053946;28;20235;-74
2021/03/06 09:10:38;;;;;;;12.67;11.03;;;8.50;99.90;;;;;;5055594;28;20238;-75
2021/03/06 09:13:07;;;;;;;13.57;10.87;;;8.60;99.90;;;;;;5055989;28;20614;-74
2021/03/06 09:15:42;;;;;;;13.00;11.10;;;8.70;99.90;;;;;;5055875;28;20231;-74
2021/03/06 09:18:11;;;;;;;13.10;11.20;;;8.30;99.90;;;;;;5055163;28;20255;-75
2021/03/06 09:20:45;;;;;;;14.00;11.70;;;8.80;99.90;;;;;;5038201;28;20749;-74
2021/03/06 09:23:22;;;;;;;13.83;10.67;;;9.50;99.90;;;;;;5055618;28;20241;-75
2021/03/06 09:25:48;;;;;;;14.17;11.33;;;10.10;99.90;;;;;;5055634;28;20231;-75
2021/03/06 09:28:21;;;;;;;13.77;10.87;;;9.40;99.90;;;;;;5055381;28;20278;-75
2021/03/06 09:30:47;;;;;;;14.47;11.00;;;10.30;99.90;;;;;;5055554;28;20282;-74
2021/03/06 09:33:25;;;;;;;15.97;11.00;;;9.70;99.90;;;;;;5055564;28;20235;-75
2021/03/06 09:35:58;;;;;;;13.37;10.80;;;11.00;99.90;;;;;;5055419;28;20235;-75
2021/03/06 09:38:25;;;;;;;12.67;10.57;;;11.20;99.90;;;;;;5055232;28;20211;-75
2021/03/06 09:40:51;;;;;;;12.33;10.23;;;10.00;99.90;;;;;;5054956;28;20315;-74
2021/03/06 09:43:25;;;;;;;13.60;11.23;;;10.30;99.90;;;;;;5055150;28;20249;-75
2021/03/06 09:45:52;;;;;;;13.00;10.03;;;10.20;99.90;;;;;;5039925;28;20291;-74
2021/03/06 09:48:18;;;;;;;13.40;10.57;;;10.00;99.90;;;;;;5034953;28;20707;-74
2021/03/06 09:50:46;;;;;;;13.40;10.20;;;10.70;99.90;;;;;;5035205;28;20204;-75
2021/03/06 09:53:18;;;;;;;14.47;10.40;;;10.80;99.90;;;;;;5034866;28;20298;-74
2021/03/06 09:55:46;;;;;;;12.20;10.17;;;10.30;99.90;;;;;;5035365;28;20298;-74
2021/03/06 09:58:17;;;;;;;13.50;10.07;;;9.60;99.90;;;;;;5034813;28;20236;-74
2021/03/06 10:00:43;;;;;;;13.97;10.47;;;9.90;99.90;;;;;;5034969;28;20286;-74
2021/03/06 10:03:10;;;;;;;13.40;10.23;;;10.60;99.90;;;;;;5034969;28;20228;-74
2021/03/06 10:05:37;;;;;;;12.87;10.30;;;10.40;99.90;;;;;;5035027;28;20232;-75
2021/03/06 10:08:04;;;;;;;13.20;10.70;;;10.60;99.90;;;;;;5034757;28;20208;-75
2021/03/06 10:10:32;;;;;;;13.17;10.37;;;10.70;99.90;;;;;;5034767;28;20227;-75
2021/03/06 10:12:58;;;;;;;13.53;10.50;;;10.90;99.90;;;;;;5034943;28;20232;-74
2021/03/06 10:15:26;;;;;;;11.43;10.20;;;11.00;99.90;;;;;;5017357;28;20648;-75
2021/03/06 10:17:52;;;;;;;14.77;11.07;;;11.90;99.90;;;;;;5035038;28;20688;-74
2021/03/06 10:20:28;;;;;;;15.90;10.47;;;10.60;99.90;;;;;;5033663;28;20264;-75
2021/03/06 10:22:54;;;;;;;15.27;11.33;;;10.70;99.90;;;;;;5034715;28;20351;-75
2021/03/06 10:25:26;;;;;;;12.43;10.80;;;10.00;99.90;;;;;;5034781;28;20205;-75
2021/03/06 10:27:54;;;;;;;12.03;10.27;;;9.80;99.90;;;;;;5035072;28;20308;-75
2021/03/06 10:30:23;;;;;;;12.80;10.90;;;10.40;99.90;;;;;;5034567;28;20283;-75
2021/03/06 10:32:52;;;;;;;12.63;10.80;;;10.90;99.90;;;;;;5034687;28;20222;-75
2021/03/06 10:35:37;;;;;;;13.17;10.80;;;11.10;99.90;;;;;;5034518;28;20287;-75
2021/03/06 10:38:06;;;;;;;13.23;10.63;;;11.30;99.90;;;;;;5034627;28;20614;-75
2021/03/06 10:40:44;;;;;;;13.43;11.07;;;10.10;99.90;;;;;;5034521;28;20256;-74
2021/03/06 10:43:23;;;;;;;12.77;10.40;;;10.80;99.90;;;;;;5016995;28;20667;-74
2021/03/06 10:45:50;;;;;;;14.13;10.97;;;10.90;99.90;;;;;;5049456;28;20291;-75
2021/03/06 10:48:28;;;;;;;14.00;10.90;;;10.40;99.90;;;;;;5054144;28;20290;-75
2021/03/06 10:50:56;;;;;;;13.80;11.27;;;11.00;99.90;;;;;;5054133;28;20207;-75
2021/03/06 10:53:23;;;;;;;12.97;10.37;;;11.10;99.90;;;;;;5036399;28;20219;-75
2021/03/06 10:55:52;;;;;;;13.63;11.10;;;10.80;99.90;;;;;;5054305;28;20235;-74
2021/03/06 10:58:21;;;;;;;14.23;10.97;;;11.80;99.90;;;;;;5054020;28;20619;-74
2021/03/06 11:00:49;;;;;;;12.00;10.23;;;11.30;99.90;;;;;;5053853;28;20258;-74
2021/03/06 11:03:15;;;;;;;12.17;9.53;;;10.90;99.90;;;;;;5053737;28;20199;-75
2021/03/06 11:05:43;;;;;;;11.90;9.90;;;10.70;99.90;;;;;;5053856;28;20287;-75
2021/03/06 11:08:14;;;;;;;11.23;9.60;;;10.80;99.90;;;;;;5053946;28;20261;-75
2021/03/06 11:10:43;;;;;;;16.77;10.27;;;11.50;99.90;;;;;;5053678;28;20234;-74
2021/03/06 11:13:10;;;;;;;12.50;9.87;;;11.40;99.90;;;;;;5053346;28;20238;-74
2021/03/06 11:15:46;;;;;;;12.57;9.80;;;10.70;99.90;;;;;;5053679;28;20238;-75
2021/03/06 11:18:12;;;;;;;11.03;9.77;;;10.90;99.90;;;;;;5053380;28;20322;-75
2021/03/06 11:20:39;;;;;;;13.40;10.03;;;11.40;99.90;;;;;;5053552;28;20278;-75
2021/03/06 11:23:06;;;;;;;16.03;9.97;;;11.40;99.90;;;;;;5053702;28;20218;-75
2021/03/06 11:25:33;;;;;;;10.73;9.00;;;11.00;99.90;;;;;;5053509;28;20199;-74
2021/03/06 11:28:01;;;;;;;12.07;9.50;;;11.30;99.90;;;;;;5053523;28;20210;-75
2021/03/06 11:30:30;;;;;;;12.57;10.13;;;11.50;99.90;;;;;;5053193;28;20289;-75
2021/03/06 11:32:58;;;;;;;11.37;9.77;;;11.90;99.90;;;;;;5053255;28;20722;-74
2021/03/06 11:35:25;;;;;;;12.43;9.80;;;11.30;99.90;;;;;;5053348;28;20231;-74
2021/03/06 11:37:52;;;;;;;11.30;9.33;;;11.00;99.90;;;;;;5053548;28;20231;-75
2021/03/06 11:40:20;;;;;;;11.20;9.30;;;11.40;99.90;;;;;;5053159;28;20262;-74
2021/03/06 11:42:48;;;;;;;10.03;8.47;;;11.40;99.90;;;;;;5053199;28;20235;-75
2021/03/06 11:45:17;;;;;;;10.37;8.50;;;11.40;99.90;;;;;;5052868;28;20239;-75
2021/03/06 11:47:44;;;;;;;9.77;8.60;;;11.60;99.90;;;;;;5052824;28;20280;-74
2021/03/06 11:50:14;;;;;;;10.93;8.50;;;12.00;99.90;;;;;;5053113;28;20191;-74
2021/03/06 11:52:40;;;;;;;11.57;8.90;;;11.80;99.90;;;;;;5053166;28;20664;-75
2021/03/06 11:55:09;;;;;;;10.70;8.77;;;11.90;99.90;;;;;;5052783;28;20246;-75
2021/03/06 11:57:36;;;;;;;10.20;8.90;;;11.70;99.90;;;;;;5052822;28;20239;-74
2021/03/06 12:00:05;;;;;;;10.70;8.27;;;11.40;99.90;;;;;;5052667;28;20223;-74
2021/03/06 12:02:32;;;;;;;9.53;7.53;;;10.80;99.90;;;;;;5052050;28;20243;-75
2021/03/06 12:04:58;;;;;;;7.73;6.70;;;11.30;99.90;;;;;;5052374;28;20235;-75
2021/03/06 12:07:26;;;;;;;7.63;6.70;;;11.00;99.90;;;;;;5035120;28;20235;-74
2021/03/06 12:09:52;;;;;;;8.50;7.03;;;11.10;99.90;;;;;;5052731;28;20200;-75
2021/03/06 12:12:18;;;;;;;7.53;6.73;;;11.70;99.90;;;;;;5052566;28;20239;-75
2021/03/06 12:14:45;;;;;;;8.20;6.80;;;12.10;99.90;;;;;;5052540;28;20647;-75
2021/03/06 12:17:12;;;;;;;7.33;6.20;;;12.00;99.90;;;;;;5052043;28;20306;-75
2021/03/06 12:19:39;;;;;;;7.80;6.07;;;12.40;99.90;;;;;;5052165;28;20263;-75
2021/03/06 12:22:06;;;;;;;7.20;5.87;;;12.10;99.90;;;;;;5052235;28;20294;-75
2021/03/06 12:24:33;;;;;;;6.43;5.83;;;12.60;99.90;;;;;;5052542;28;20635;-75
2021/03/06 12:27:00;;;;;;;8.70;6.03;;;12.80;99.90;;;;;;5052185;28;20256;-74
2021/03/06 12:29:26;;;;;;;6.93;5.97;;;11.60;99.90;;;;;;5052103;28;20690;-75
2021/03/06 12:31:53;;;;;;;7.60;6.10;;;11.20;99.90;;;;;;5051531;28;20284;-75
2021/03/06 12:34:20;;;;;;;7.50;6.20;;;11.50;99.90;;;;;;5051952;28;20235;-75
2021/03/06 12:36:47;;;;;;;7.50;6.37;;;11.60;99.90;;;;;;5051968;28;20322;-74
2021/03/06 12:39:13;;;;;;;8.83;6.60;;;11.30;99.90;;;;;;5052154;28;20614;-75
2021/03/06 12:41:41;;;;;;;8.07;6.87;;;11.50;99.90;;;;;;5051554;28;20397;-74
2021/03/06 12:44:08;;;;;;;7.47;6.50;;;11.50;99.90;;;;;;5052021;28;20344;-74